Pendroy, MT (59467)

1:02 PM MDT on May 23, 2017 (GMT -0600)
TetonCD~Rice Ridge | | Change Station
Active Advisory: High Wind Warning

Elev 4085 ft 48.04 °N, 112.20 °W | Updated 2 minutes ago

Partly Cloudy
Partly Cloudy
75.9 °F
Feels Like 77 °F
N
4.0
Wind Variable Wind from WSW
Gusts 12.0 mph

Today
High -- | Low -- °F
--% Chance of Precip.
Yesterday
High -- | Low -- °F
Precip. -- in
Pressure 29.88 in
Visibility 10.0 miles
Clouds Clear
Heat Index 77 °F
Dew Point 42 °F
Humidity 30%
Rainfall 0.00 in
Snow Depth Not available.
5:40 AM 9:11 PM
Waning Crescent, 6% visible
METAR KCTB 231856Z AUTO 23011G17KT 10SM CLR 25/04 A2995 RMK AO2 SLP117 T02500039
Pressure 29.88 in
Visibility 10.0 miles
Clouds Clear
Heat Index 77 °F
Dew Point 42 °F
Humidity 30%
Rainfall 0.00 in
Snow Depth Not available.
5:40 AM 9:11 PM
Waning Crescent, 6% visible
METAR KCTB 231856Z AUTO 23011G17KT 10SM CLR 25/04 A2995 RMK AO2 SLP117 T02500039

Get Your Daily Forecast Email!

Thanks for signing up!

Be on the lookout for a verification email in your inbox.

You'll start receiving severe weather alerts in your inbox..

×

10-Day Weather Forecast

Almanac

Astronomy

May. 23, 2017 Rise Set
Actual Time
Civil Twilight
Nautical Twilight
Astronomical Twilight
Moon
Length of Visible Light
Length of Day
Tomorrow will be .
, % of the Moon is Illuminated

Today's Extremes

State Highs State Lows

Community

WunderPhotos

Category 6

Welcome to Category 6. This is the collective home for Weather Underground's featured writeups by Dr. Jeff Masters (right), Bob Henson (left), Chris Burt, and other regular contributors.

Nearby

Air Quality

  Air Quality AQ Index Pollutant
Not available.

Snow Depth

Station Depth Elevation

Earthquake Activity

City Distance Mag. Time & Date
Minimum magnitude displayed is 2.5.

Coastal Water Temperatures

Place Temperature

Stations

Nearby Weather Stations

Station Location Temp. Windchill Dew Point Humidity Wind Precip. Elev Updated Type
                   

Watches & Warnings

High Wind Warning
Issued: 3:36 AM MDT May. 23, 2017 – National Weather Service

... High Wind Warning in effect from midnight tonight to midnight
MDT Wednesday night...

The National Weather Service in Great Falls has issued a High
Wind Warning, which is in effect from midnight tonight to
midnight MDT Wednesday night. The high wind watch is no longer in
effect.

* Winds: west 40 to 50 mph with gusts up to 80 mph.

* Timing: strong winds will develop Tuesday night and continue
through late Wednesday evening.

* Impacts: strong winds could become damaging, possibly blowing
down trees and power lines. Power outages are also possible.
Travel could become difficult, especially for high profile
vehicles traveling on north to south orientated roads.

Precautionary/preparedness actions...

A High Wind Warning means a hazardous high wind event is expected
or occurring. Sustained wind speeds of at least 40 mph, or gusts
of 58 mph or more, can lead to property damage.